sensor_id;sensor_type;location;lat;lon;timestamp;P1;P2;P0
73828;PMS7003;62176;48.450;-4.466;2022-08-23T00:01:47;17.75;4.00;2.00
73828;PMS7003;62176;48.450;-4.466;2022-08-23T00:04:25;5.00;4.00;3.00
73828;PMS7003;62176;48.450;-4.466;2022-08-23T00:06:54;6.25;6.00;3.75
73828;PMS7003;62176;48.450;-4.466;2022-08-23T00:09:20;4.25;4.25;2.25
73828;PMS7003;62176;48.450;-4.466;2022-08-23T00:11:48;5.50;5.50;3.00
73828;PMS7003;62176;48.450;-4.466;2022-08-23T00:14:25;8.25;4.00;3.00
73828;PMS7003;62176;48.450;-4.466;2022-08-23T00:16:54;5.75;5.75;3.75
73828;PMS7003;62176;48.450;-4.466;2022-08-23T00:19:21;5.25;4.00;2.50
73828;PMS7003;62176;48.450;-4.466;2022-08-23T00:21:48;3.50;3.50;2.50
73828;PMS7003;62176;48.450;-4.466;2022-08-23T00:24:15;5.00;5.00;3.50
73828;PMS7003;62176;48.450;-4.466;2022-08-23T00:26:53;6.50;3.75;3.25
73828;PMS7003;62176;48.450;-4.466;2022-08-23T00:29:22;6.00;4.75;3.00
73828;PMS7003;62176;48.450;-4.466;2022-08-23T00:31:51;5.50;5.50;3.75
73828;PMS7003;62176;48.450;-4.466;2022-08-23T00:34:16;6.50;4.00;2.75
73828;PMS7003;62176;48.450;-4.466;2022-08-23T00:36:42;3.00;1.50;1.00
73828;PMS7003;62176;48.450;-4.466;2022-08-23T00:39:09;3.25;3.25;2.25
73828;PMS7003;62176;48.450;-4.466;2022-08-23T00:41:35;8.50;5.00;3.25
73828;PMS7003;62176;48.450;-4.466;2022-08-23T00:44:01;7.25;3.25;3.00
73828;PMS7003;62176;48.450;-4.466;2022-08-23T00:46:49;4.00;4.00;3.25
73828;PMS7003;62176;48.450;-4.466;2022-08-23T00:49:36;4.00;4.00;2.50
73828;PMS7003;62176;48.450;-4.466;2022-08-23T00:52:05;3.00;3.00;3.00
73828;PMS7003;62176;48.450;-4.466;2022-08-23T00:54:35;7.00;3.00;2.00
73828;PMS7003;62176;48.450;-4.466;2022-08-23T00:57:04;3.50;3.50;1.75
73828;PMS7003;62176;48.450;-4.466;2022-08-23T00:59:32;0.75;0.75;0.75
73828;PMS7003;62176;48.450;-4.466;2022-08-23T01:01:58;2.25;2.00;1.75
73828;PMS7003;62176;48.450;-4.466;2022-08-23T01:04:26;4.50;3.25;1.75
73828;PMS7003;62176;48.450;-4.466;2022-08-23T01:07:00;1.75;1.75;1.00
73828;PMS7003;62176;48.450;-4.466;2022-08-23T01:09:28;2.00;2.00;0.75
73828;PMS7003;62176;48.450;-4.466;2022-08-23T01:11:57;0.75;0.75;0.50
73828;PMS7003;62176;48.450;-4.466;2022-08-23T01:14:43;1.75;1.75;1.00
73828;PMS7003;62176;48.450;-4.466;2022-08-23T01:17:24;0.00;0.00;0.00
73828;PMS7003;62176;48.450;-4.466;2022-08-23T01:20:16;1.00;1.00;1.00
73828;PMS7003;62176;48.450;-4.466;2022-08-23T01:25:13;0.25;0.25;0.25
73828;PMS7003;62176;48.450;-4.466;2022-08-23T01:27:44;1.00;0.50;0.25
73828;PMS7003;62176;48.450;-4.466;2022-08-23T01:30:10;0.00;0.00;0.00
73828;PMS7003;62176;48.450;-4.466;2022-08-23T01:32:45;1.00;1.00;0.50
73828;PMS7003;62176;48.450;-4.466;2022-08-23T01:35:20;0.75;0.50;0.50
73828;PMS7003;62176;48.450;-4.466;2022-08-23T01:37:54;0.50;0.50;0.00
73828;PMS7003;62176;48.450;-4.466;2022-08-23T01:40:19;0.75;0.75;0.50
73828;PMS7003;62176;48.450;-4.466;2022-08-23T01:42:44;0.50;0.50;0.25
73828;PMS7003;62176;48.450;-4.466;2022-08-23T01:45:12;3.00;1.00;1.00
73828;PMS7003;62176;48.450;-4.466;2022-08-23T01:47:38;2.25;2.25;1.50
73828;PMS7003;62176;48.450;-4.466;2022-08-23T01:50:05;2.75;1.75;1.25
73828;PMS7003;62176;48.450;-4.466;2022-08-23T01:52:33;5.75;3.50;1.75
73828;PMS7003;62176;48.450;-4.466;2022-08-23T01:54:59;13.75;5.50;3.00
73828;PMS7003;62176;48.450;-4.466;2022-08-23T01:57:26;9.50;3.25;3.00
73828;PMS7003;62176;48.450;-4.466;2022-08-23T01:59:53;10.25;6.25;2.75
73828;PMS7003;62176;48.450;-4.466;2022-08-23T02:02:19;23.50;8.25;4.50
73828;PMS7003;62176;48.450;-4.466;2022-08-23T02:04:45;8.25;5.25;3.00
73828;PMS7003;62176;48.450;-4.466;2022-08-23T02:07:10;5.50;5.50;3.00
73828;PMS7003;62176;48.450;-4.466;2022-08-23T02:09:36;17.50;6.25;4.00
73828;PMS7003;62176;48.450;-4.466;2022-08-23T02:12:01;6.50;4.00;3.25
73828;PMS7003;62176;48.450;-4.466;2022-08-23T02:14:27;9.50;6.25;3.75
73828;PMS7003;62176;48.450;-4.466;2022-08-23T02:16:53;8.50;5.50;4.00
73828;PMS7003;62176;48.450;-4.466;2022-08-23T02:19:22;9.50;7.25;4.75
73828;PMS7003;62176;48.450;-4.466;2022-08-23T02:21:48;9.50;7.00;4.50
73828;PMS7003;62176;48.450;-4.466;2022-08-23T02:24:18;14.00;10.75;5.25
73828;PMS7003;62176;48.450;-4.466;2022-08-23T02:26:49;7.25;6.25;3.00
73828;PMS7003;62176;48.450;-4.466;2022-08-23T02:29:18;9.00;6.75;5.25
73828;PMS7003;62176;48.450;-4.466;2022-08-23T02:31:45;11.50;7.75;6.00
73828;PMS7003;62176;48.450;-4.466;2022-08-23T02:34:12;11.50;7.50;4.50
73828;PMS7003;62176;48.450;-4.466;2022-08-23T02:36:38;8.50;8.50;5.00
73828;PMS7003;62176;48.450;-4.466;2022-08-23T02:39:04;7.75;7.75;5.25
73828;PMS7003;62176;48.450;-4.466;2022-08-23T02:41:31;8.75;7.75;4.25
73828;PMS7003;62176;48.450;-4.466;2022-08-23T02:43:56;7.75;5.75;3.75
73828;PMS7003;62176;48.450;-4.466;2022-08-23T02:46:22;9.25;8.25;6.50
73828;PMS7003;62176;48.450;-4.466;2022-08-23T02:48:48;13.00;7.50;4.00
73828;PMS7003;62176;48.450;-4.466;2022-08-23T02:51:14;12.25;8.00;5.75
73828;PMS7003;62176;48.450;-4.466;2022-08-23T02:53:40;8.00;6.75;3.75
73828;PMS7003;62176;48.450;-4.466;2022-08-23T02:56:06;12.75;7.00;3.75
73828;PMS7003;62176;48.450;-4.466;2022-08-23T02:58:33;12.00;10.25;5.50
73828;PMS7003;62176;48.450;-4.466;2022-08-23T03:00:59;12.75;9.00;5.25
73828;PMS7003;62176;48.450;-4.466;2022-08-23T03:03:25;14.25;10.25;5.25
73828;PMS7003;62176;48.450;-4.466;2022-08-23T03:05:51;13.50;11.25;7.25
73828;PMS7003;62176;48.450;-4.466;2022-08-23T03:08:17;8.50;7.25;5.50
73828;PMS7003;62176;48.450;-4.466;2022-08-23T03:10:46;10.75;7.75;5.25
73828;PMS7003;62176;48.450;-4.466;2022-08-23T03:13:14;13.75;7.75;4.00
73828;PMS7003;62176;48.450;-4.466;2022-08-23T03:15:40;11.50;7.50;5.50
73828;PMS7003;62176;48.450;-4.466;2022-08-23T03:18:06;9.25;6.50;4.00
73828;PMS7003;62176;48.450;-4.466;2022-08-23T03:20:32;15.25;9.00;5.50
73828;PMS7003;62176;48.450;-4.466;2022-08-23T03:22:59;15.25;9.25;5.50
73828;PMS7003;62176;48.450;-4.466;2022-08-23T03:25:25;8.75;8.25;4.75
73828;PMS7003;62176;48.450;-4.466;2022-08-23T03:27:50;15.50;9.00;3.75
73828;PMS7003;62176;48.450;-4.466;2022-08-23T03:30:16;12.50;7.00;4.00
73828;PMS7003;62176;48.450;-4.466;2022-08-23T03:32:41;12.50;7.75;5.00
73828;PMS7003;62176;48.450;-4.466;2022-08-23T03:35:07;8.25;7.75;4.50
73828;PMS7003;62176;48.450;-4.466;2022-08-23T03:37:34;11.00;7.50;6.00
73828;PMS7003;62176;48.450;-4.466;2022-08-23T03:39:59;7.50;7.50;4.00
73828;PMS7003;62176;48.450;-4.466;2022-08-23T03:42:24;8.50;7.25;3.75
73828;PMS7003;62176;48.450;-4.466;2022-08-23T03:44:50;8.00;5.50;3.25
73828;PMS7003;62176;48.450;-4.466;2022-08-23T03:47:16;13.75;7.75;4.25
73828;PMS7003;62176;48.450;-4.466;2022-08-23T03:49:41;7.00;5.25;3.25
73828;PMS7003;62176;48.450;-4.466;2022-08-23T03:52:07;9.50;5.50;3.50
73828;PMS7003;62176;48.450;-4.466;2022-08-23T03:54:33;11.75;8.00;5.25
73828;PMS7003;62176;48.450;-4.466;2022-08-23T03:57:00;9.50;8.00;3.75
73828;PMS7003;62176;48.450;-4.466;2022-08-23T03:59:28;14.00;8.00;4.00
73828;PMS7003;62176;48.450;-4.466;2022-08-23T04:01:55;8.00;5.75;3.00
73828;PMS7003;62176;48.450;-4.466;2022-08-23T04:04:21;7.00;5.50;4.00
73828;PMS7003;62176;48.450;-4.466;2022-08-23T04:06:46;7.00;6.00;4.00
73828;PMS7003;62176;48.450;-4.466;2022-08-23T04:09:12;8.50;7.25;5.25
73828;PMS7003;62176;48.450;-4.466;2022-08-23T04:11:39;7.25;5.50;4.50
73828;PMS7003;62176;48.450;-4.466;2022-08-23T04:14:05;8.75;5.50;3.25
73828;PMS7003;62176;48.450;-4.466;2022-08-23T04:16:31;9.25;4.50;4.00
73828;PMS7003;62176;48.450;-4.466;2022-08-23T04:19:05;7.25;7.25;4.25
73828;PMS7003;62176;48.450;-4.466;2022-08-23T04:21:32;9.75;8.00;4.75
73828;PMS7003;62176;48.450;-4.466;2022-08-23T04:24:00;7.50;7.00;4.50
73828;PMS7003;62176;48.450;-4.466;2022-08-23T04:26:26;7.50;4.25;2.75
73828;PMS7003;62176;48.450;-4.466;2022-08-23T04:28:51;4.75;3.75;3.00
73828;PMS7003;62176;48.450;-4.466;2022-08-23T04:31:17;4.00;3.00;2.00
73828;PMS7003;62176;48.450;-4.466;2022-08-23T04:33:44;5.25;1.50;0.50
73828;PMS7003;62176;48.450;-4.466;2022-08-23T04:36:10;2.50;2.50;1.50
73828;PMS7003;62176;48.450;-4.466;2022-08-23T04:38:35;2.50;1.25;1.00
73828;PMS7003;62176;48.450;-4.466;2022-08-23T04:41:01;6.00;3.00;1.50
73828;PMS7003;62176;48.450;-4.466;2022-08-23T04:43:45;0.50;0.50;0.50
73828;PMS7003;62176;48.450;-4.466;2022-08-23T04:46:11;3.50;1.00;0.50
73828;PMS7003;62176;48.450;-4.466;2022-08-23T04:48:39;1.25;1.00;1.00
73828;PMS7003;62176;48.450;-4.466;2022-08-23T04:51:06;2.25;2.25;1.00
73828;PMS7003;62176;48.450;-4.466;2022-08-23T04:53:31;4.50;2.75;2.00
73828;PMS7003;62176;48.450;-4.466;2022-08-23T04:55:59;4.25;1.00;0.25
73828;PMS7003;62176;48.450;-4.466;2022-08-23T04:58:26;2.25;2.00;1.00
73828;PMS7003;62176;48.450;-4.466;2022-08-23T05:00:52;2.25;0.50;0.50
73828;PMS7003;62176;48.450;-4.466;2022-08-23T05:03:18;0.50;0.50;0.25
73828;PMS7003;62176;48.450;-4.466;2022-08-23T05:05:43;1.25;1.25;1.00
73828;PMS7003;62176;48.450;-4.466;2022-08-23T05:08:09;5.25;0.50;0.50
73828;PMS7003;62176;48.450;-4.466;2022-08-23T05:10:35;1.75;1.75;1.75
73828;PMS7003;62176;48.450;-4.466;2022-08-23T05:13:00;3.25;1.50;1.00
73828;PMS7003;62176;48.450;-4.466;2022-08-23T05:15:25;1.75;0.50;0.50
73828;PMS7003;62176;48.450;-4.466;2022-08-23T05:17:51;0.50;0.50;0.50
73828;PMS7003;62176;48.450;-4.466;2022-08-23T05:20:17;2.00;1.00;0.00
73828;PMS7003;62176;48.450;-4.466;2022-08-23T05:22:42;0.75;0.75;0.50
73828;PMS7003;62176;48.450;-4.466;2022-08-23T05:25:08;1.00;0.75;0.50
73828;PMS7003;62176;48.450;-4.466;2022-08-23T05:27:34;1.25;0.50;0.50
73828;PMS7003;62176;48.450;-4.466;2022-08-23T05:30:01;0.50;0.50;0.50
73828;PMS7003;62176;48.450;-4.466;2022-08-23T05:32:27;2.25;0.50;0.50
73828;PMS7003;62176;48.450;-4.466;2022-08-23T05:34:52;2.75;2.25;1.25
73828;PMS7003;62176;48.450;-4.466;2022-08-23T05:37:17;1.50;1.50;0.50
73828;PMS7003;62176;48.450;-4.466;2022-08-23T05:39:43;1.50;1.50;0.50
73828;PMS7003;62176;48.450;-4.466;2022-08-23T05:42:10;3.00;0.50;0.50
73828;PMS7003;62176;48.450;-4.466;2022-08-23T05:44:38;0.50;0.50;0.50
73828;PMS7003;62176;48.450;-4.466;2022-08-23T05:47:04;2.25;2.25;1.50
73828;PMS7003;62176;48.450;-4.466;2022-08-23T05:49:31;3.00;2.50;1.50
73828;PMS7003;62176;48.450;-4.466;2022-08-23T05:52:01;2.75;1.00;0.50
73828;PMS7003;62176;48.450;-4.466;2022-08-23T05:54:27;2.50;0.50;0.50
73828;PMS7003;62176;48.450;-4.466;2022-08-23T05:56:52;4.25;1.50;1.25
73828;PMS7003;62176;48.450;-4.466;2022-08-23T05:59:18;4.50;0.50;0.50
73828;PMS7003;62176;48.450;-4.466;2022-08-23T06:01:44;3.50;2.50;1.50
73828;PMS7003;62176;48.450;-4.466;2022-08-23T06:04:10;3.25;1.25;0.50
73828;PMS7003;62176;48.450;-4.466;2022-08-23T06:06:37;3.00;1.00;1.00
73828;PMS7003;62176;48.450;-4.466;2022-08-23T06:09:04;7.25;2.00;0.50
73828;PMS7003;62176;48.450;-4.466;2022-08-23T06:11:32;2.50;2.00;1.25
73828;PMS7003;62176;48.450;-4.466;2022-08-23T06:13:59;3.75;3.75;2.00
73828;PMS7003;62176;48.450;-4.466;2022-08-23T06:16:36;10.25;6.00;2.25
73828;PMS7003;62176;48.450;-4.466;2022-08-23T06:19:04;8.75;5.75;2.50
73828;PMS7003;62176;48.450;-4.466;2022-08-23T06:21:31;4.50;4.50;3.00
73828;PMS7003;62176;48.450;-4.466;2022-08-23T06:23:57;5.00;4.00;2.50
73828;PMS7003;62176;48.450;-4.466;2022-08-23T06:26:24;3.50;3.50;2.25
73828;PMS7003;62176;48.450;-4.466;2022-08-23T06:28:55;6.50;3.50;1.50
73828;PMS7003;62176;48.450;-4.466;2022-08-23T06:31:22;2.25;2.00;1.25
73828;PMS7003;62176;48.450;-4.466;2022-08-23T06:34:08;1.50;1.50;1.25
73828;PMS7003;62176;48.450;-4.466;2022-08-23T06:36:37;5.00;2.75;2.00
73828;PMS7003;62176;48.450;-4.466;2022-08-23T06:39:06;4.50;2.50;2.25
73828;PMS7003;62176;48.450;-4.466;2022-08-23T06:41:32;1.75;1.75;1.00
73828;PMS7003;62176;48.450;-4.466;2022-08-23T06:43:58;2.50;2.25;1.75
73828;PMS7003;62176;48.450;-4.466;2022-08-23T06:46:25;3.25;1.25;1.25
73828;PMS7003;62176;48.450;-4.466;2022-08-23T06:48:53;3.50;0.75;0.25
73828;PMS7003;62176;48.450;-4.466;2022-08-23T06:53:52;4.00;1.25;1.00
73828;PMS7003;62176;48.450;-4.466;2022-08-23T06:56:19;0.50;0.50;0.50
73828;PMS7003;62176;48.450;-4.466;2022-08-23T06:58:46;0.50;0.25;0.25
73828;PMS7003;62176;48.450;-4.466;2022-08-23T07:01:19;1.75;1.00;1.00
73828;PMS7003;62176;48.450;-4.466;2022-08-23T07:04:05;5.00;2.00;2.00
73828;PMS7003;62176;48.450;-4.466;2022-08-23T07:06:31;2.00;2.00;1.00
73828;PMS7003;62176;48.450;-4.466;2022-08-23T07:08:57;6.25;2.25;2.00
73828;PMS7003;62176;48.450;-4.466;2022-08-23T07:11:23;3.50;2.00;2.00
73828;PMS7003;62176;48.450;-4.466;2022-08-23T07:13:50;3.50;1.75;0.50
73828;PMS7003;62176;48.450;-4.466;2022-08-23T07:16:17;7.50;2.75;1.50
73828;PMS7003;62176;48.450;-4.466;2022-08-23T07:18:44;3.25;1.50;1.50
73828;PMS7003;62176;48.450;-4.466;2022-08-23T07:21:10;7.25;2.50;1.25
73828;PMS7003;62176;48.450;-4.466;2022-08-23T07:23:38;6.00;3.50;2.00
73828;PMS7003;62176;48.450;-4.466;2022-08-23T07:26:08;3.00;1.50;1.00
73828;PMS7003;62176;48.450;-4.466;2022-08-23T07:28:36;4.50;4.00;3.00
73828;PMS7003;62176;48.450;-4.466;2022-08-23T07:31:11;9.00;4.25;2.75
73828;PMS7003;62176;48.450;-4.466;2022-08-23T07:33:42;9.50;5.50;3.50
73828;PMS7003;62176;48.450;-4.466;2022-08-23T07:36:08;8.25;5.50;3.50
73828;PMS7003;62176;48.450;-4.466;2022-08-23T07:38:34;7.75;5.50;3.50
73828;PMS7003;62176;48.450;-4.466;2022-08-23T07:41:01;10.25;8.00;5.25
73828;PMS7003;62176;48.450;-4.466;2022-08-23T07:43:28;6.25;4.00;3.00
73828;PMS7003;62176;48.450;-4.466;2022-08-23T07:45:55;10.00;4.75;3.25
73828;PMS7003;62176;48.450;-4.466;2022-08-23T07:48:20;7.50;5.50;3.00
73828;PMS7003;62176;48.450;-4.466;2022-08-23T07:50:57;9.75;8.75;5.00
73828;PMS7003;62176;48.450;-4.466;2022-08-23T07:53:24;9.75;8.50;5.50
73828;PMS7003;62176;48.450;-4.466;2022-08-23T07:55:51;9.50;6.25;4.50
73828;PMS7003;62176;48.450;-4.466;2022-08-23T07:58:17;4.50;4.50;3.25
73828;PMS7003;62176;48.450;-4.466;2022-08-23T08:00:43;7.25;7.25;5.25
73828;PMS7003;62176;48.450;-4.466;2022-08-23T08:03:09;5.50;5.50;4.00
73828;PMS7003;62176;48.450;-4.466;2022-08-23T08:05:36;12.25;8.50;6.00
73828;PMS7003;62176;48.450;-4.466;2022-08-23T08:08:02;9.25;8.00;7.00
73828;PMS7003;62176;48.450;-4.466;2022-08-23T08:10:29;10.00;9.00;6.75
73828;PMS7003;62176;48.450;-4.466;2022-08-23T08:12:54;8.50;7.50;5.50
73828;PMS7003;62176;48.450;-4.466;2022-08-23T08:15:20;11.75;11.25;8.00
73828;PMS7003;62176;48.450;-4.466;2022-08-23T08:17:48;11.50;9.75;7.25
73828;PMS7003;62176;48.450;-4.466;2022-08-23T08:20:15;14.25;12.25;8.50
73828;PMS7003;62176;48.450;-4.466;2022-08-23T08:22:41;15.75;9.75;6.50
73828;PMS7003;62176;48.450;-4.466;2022-08-23T08:25:07;15.75;15.00;9.75
73828;PMS7003;62176;48.450;-4.466;2022-08-23T08:27:34;19.75;17.50;10.00
73828;PMS7003;62176;48.450;-4.466;2022-08-23T08:30:00;15.00;13.50;9.00
73828;PMS7003;62176;48.450;-4.466;2022-08-23T08:32:25;12.75;10.50;8.00
73828;PMS7003;62176;48.450;-4.466;2022-08-23T08:34:50;8.25;8.25;3.50
73828;PMS7003;62176;48.450;-4.466;2022-08-23T08:37:16;10.75;9.25;7.00
73828;PMS7003;62176;48.450;-4.466;2022-08-23T08:39:41;13.00;10.50;7.00
73828;PMS7003;62176;48.450;-4.466;2022-08-23T08:44:52;11.50;11.25;8.50
73828;PMS7003;62176;48.450;-4.466;2022-08-23T08:47:37;11.75;11.00;7.75
73828;PMS7003;62176;48.450;-4.466;2022-08-23T08:52:32;14.00;12.00;7.75
73828;PMS7003;62176;48.450;-4.466;2022-08-23T08:55:06;7.25;7.25;5.00
73828;PMS7003;62176;48.450;-4.466;2022-08-23T08:57:44;8.50;7.00;4.00
73828;PMS7003;62176;48.450;-4.466;2022-08-23T09:02:57;9.25;8.50;7.00
73828;PMS7003;62176;48.450;-4.466;2022-08-23T09:05:26;11.75;9.25;6.00
73828;PMS7003;62176;48.450;-4.466;2022-08-23T09:18:48;8.00;5.00;2.75
73828;PMS7003;62176;48.450;-4.466;2022-08-23T09:21:13;8.75;7.75;4.75
73828;PMS7003;62176;48.450;-4.466;2022-08-23T09:23:41;7.75;5.25;4.00
73828;PMS7003;62176;48.450;-4.466;2022-08-23T09:26:29;8.50;5.00;4.50
73828;PMS7003;62176;48.450;-4.466;2022-08-23T09:29:00;6.75;4.50;3.75
73828;PMS7003;62176;48.450;-4.466;2022-08-23T09:31:48;6.75;4.00;3.00
73828;PMS7003;62176;48.450;-4.466;2022-08-23T09:37:08;5.25;3.50;3.00
73828;PMS7003;62176;48.450;-4.466;2022-08-23T09:39:45;4.00;2.75;2.25
73828;PMS7003;62176;48.450;-4.466;2022-08-23T09:42:33;4.00;4.00;2.00
73828;PMS7003;62176;48.450;-4.466;2022-08-23T09:45:03;6.00;6.00;3.50
73828;PMS7003;62176;48.450;-4.466;2022-08-23T09:47:48;3.00;3.00;3.00
73828;PMS7003;62176;48.450;-4.466;2022-08-23T09:50:28;3.75;3.75;3.00
73828;PMS7003;62176;48.450;-4.466;2022-08-23T09:53:22;5.00;5.00;3.00
73828;PMS7003;62176;48.450;-4.466;2022-08-23T09:55:53;4.25;2.50;2.00
73828;PMS7003;62176;48.450;-4.466;2022-08-23T10:01:00;3.00;3.00;2.00
73828;PMS7003;62176;48.450;-4.466;2022-08-23T10:03:42;5.50;3.75;2.50
73828;PMS7003;62176;48.450;-4.466;2022-08-23T10:06:10;4.25;3.25;2.00
73828;PMS7003;62176;48.450;-4.466;2022-08-23T10:09:00;3.75;3.50;2.00
73828;PMS7003;62176;48.450;-4.466;2022-08-23T10:11:31;4.25;2.25;2.00
73828;PMS7003;62176;48.450;-4.466;2022-08-23T10:14:00;2.00;2.00;1.00
73828;PMS7003;62176;48.450;-4.466;2022-08-23T10:30:00;2.00;2.00;1.00
73828;PMS7003;62176;48.450;-4.466;2022-08-23T10:35:24;1.50;1.50;1.00
73828;PMS7003;62176;48.450;-4.466;2022-08-23T10:39:12;2.25;2.25;2.25
73828;PMS7003;62176;48.450;-4.466;2022-08-23T10:46:43;3.75;3.75;2.00
73828;PMS7003;62176;48.450;-4.466;2022-08-23T10:49:16;17.25;15.00;9.00
73828;PMS7003;62176;48.450;-4.466;2022-08-23T10:51:42;2.50;1.00;1.00
73828;PMS7003;62176;48.450;-4.466;2022-08-23T10:54:12;7.00;5.00;3.50
73828;PMS7003;62176;48.450;-4.466;2022-08-23T10:56:43;3.25;2.75;2.25
73828;PMS7003;62176;48.450;-4.466;2022-08-23T11:04:24;8.25;6.00;5.00
73828;PMS7003;62176;48.450;-4.466;2022-08-23T11:07:25;6.25;3.00;2.75
73828;PMS7003;62176;48.450;-4.466;2022-08-23T11:09:55;9.25;5.50;4.00
73828;PMS7003;62176;48.450;-4.466;2022-08-23T11:12:35;6.75;4.00;2.50
73828;PMS7003;62176;48.450;-4.466;2022-08-23T11:15:20;7.25;6.50;5.00
73828;PMS7003;62176;48.450;-4.466;2022-08-23T11:17:56;2.00;2.00;1.75
73828;PMS7003;62176;48.450;-4.466;2022-08-23T11:23:16;1.00;1.00;1.00
73828;PMS7003;62176;48.450;-4.466;2022-08-23T11:26:03;1.00;1.00;0.50
73828;PMS7003;62176;48.450;-4.466;2022-08-23T11:28:38;1.75;1.00;1.00
73828;PMS7003;62176;48.450;-4.466;2022-08-23T11:33:35;1.75;0.50;0.25
73828;PMS7003;62176;48.450;-4.466;2022-08-23T11:36:18;2.00;2.00;2.00
73828;PMS7003;62176;48.450;-4.466;2022-08-23T11:43:45;1.00;1.00;1.00
73828;PMS7003;62176;48.450;-4.466;2022-08-23T11:46:35;1.00;1.00;0.75
73828;PMS7003;62176;48.450;-4.466;2022-08-23T11:52:01;1.00;1.00;0.00
73828;PMS7003;62176;48.450;-4.466;2022-08-23T11:54:56;1.00;1.00;1.00
73828;PMS7003;62176;48.450;-4.466;2022-08-23T12:00:19;0.25;0.25;0.00
73828;PMS7003;62176;48.450;-4.466;2022-08-23T12:03:00;1.25;1.00;1.00
73828;PMS7003;62176;48.450;-4.466;2022-08-23T12:11:06;0.25;0.25;0.25
73828;PMS7003;62176;48.450;-4.466;2022-08-23T12:18:50;1.00;1.00;1.00
73828;PMS7003;62176;48.450;-4.466;2022-08-23T12:21:26;1.00;1.00;0.50
73828;PMS7003;62176;48.450;-4.466;2022-08-23T12:23:54;2.00;1.00;0.00
73828;PMS7003;62176;48.450;-4.466;2022-08-23T12:28:53;1.00;1.00;1.00
73828;PMS7003;62176;48.450;-4.466;2022-08-23T12:31:31;1.00;1.00;0.50
73828;PMS7003;62176;48.450;-4.466;2022-08-23T12:39:37;1.00;1.00;1.00
73828;PMS7003;62176;48.450;-4.466;2022-08-23T12:47:41;2.00;2.00;1.00
73828;PMS7003;62176;48.450;-4.466;2022-08-23T12:52:37;1.00;1.00;1.00
73828;PMS7003;62176;48.450;-4.466;2022-08-23T12:55:11;1.75;1.75;1.25
73828;PMS7003;62176;48.450;-4.466;2022-08-23T12:57:39;1.50;1.00;1.00
73828;PMS7003;62176;48.450;-4.466;2022-08-23T13:02:39;3.00;2.00;1.00
73828;PMS7003;62176;48.450;-4.466;2022-08-23T13:05:18;2.25;1.75;1.00
73828;PMS7003;62176;48.450;-4.466;2022-08-23T13:07:51;1.00;1.00;1.00
73828;PMS7003;62176;48.450;-4.466;2022-08-23T13:10:16;5.50;1.75;1.50
73828;PMS7003;62176;48.450;-4.466;2022-08-23T13:12:42;2.00;1.75;1.25
73828;PMS7003;62176;48.450;-4.466;2022-08-23T13:15:08;1.25;1.25;1.00
73828;PMS7003;62176;48.450;-4.466;2022-08-23T13:17:34;2.75;1.50;1.00
73828;PMS7003;62176;48.450;-4.466;2022-08-23T13:22:32;2.00;2.00;2.00
73828;PMS7003;62176;48.450;-4.466;2022-08-23T13:27:29;0.00;0.00;0.00
73828;PMS7003;62176;48.450;-4.466;2022-08-23T13:29:57;0.50;0.50;0.50
73828;PMS7003;62176;48.450;-4.466;2022-08-23T13:35:42;2.00;1.00;1.00
73828;PMS7003;62176;48.450;-4.466;2022-08-23T13:38:25;2.00;2.00;1.00
73828;PMS7003;62176;48.450;-4.466;2022-08-23T13:43:22;1.75;1.75;1.00
73828;PMS7003;62176;48.450;-4.466;2022-08-23T13:46:41;1.75;1.75;1.75
73828;PMS7003;62176;48.450;-4.466;2022-08-23T13:54:22;1.00;1.00;0.75
73828;PMS7003;62176;48.450;-4.466;2022-08-23T13:56:53;4.00;1.00;0.50
73828;PMS7003;62176;48.450;-4.466;2022-08-23T14:01:52;1.50;1.50;1.00
73828;PMS7003;62176;48.450;-4.466;2022-08-23T14:04:18;2.00;0.00;0.00
73828;PMS7003;62176;48.450;-4.466;2022-08-23T14:06:43;0.25;0.25;0.00
73828;PMS7003;62176;48.450;-4.466;2022-08-23T14:09:09;1.00;1.00;0.00
73828;PMS7003;62176;48.450;-4.466;2022-08-23T14:11:34;2.00;1.00;1.00
73828;PMS7003;62176;48.450;-4.466;2022-08-23T14:14:01;0.50;0.50;0.00
73828;PMS7003;62176;48.450;-4.466;2022-08-23T14:16:28;0.75;0.75;0.50
73828;PMS7003;62176;48.450;-4.466;2022-08-23T14:18:55;0.00;0.00;0.00
73828;PMS7003;62176;48.450;-4.466;2022-08-23T14:21:21;2.25;1.00;1.00
73828;PMS7003;62176;48.450;-4.466;2022-08-23T14:23:47;1.00;1.00;1.00
73828;PMS7003;62176;48.450;-4.466;2022-08-23T14:26:13;0.00;0.00;0.00
73828;PMS7003;62176;48.450;-4.466;2022-08-23T14:28:43;2.00;2.00;1.00
73828;PMS7003;62176;48.450;-4.466;2022-08-23T14:31:10;1.75;1.00;0.50
73828;PMS7003;62176;48.450;-4.466;2022-08-23T14:33:36;1.00;0.25;0.00
73828;PMS7003;62176;48.450;-4.466;2022-08-23T14:36:02;1.00;1.00;0.50
73828;PMS7003;62176;48.450;-4.466;2022-08-23T14:38:28;1.00;1.00;1.00
73828;PMS7003;62176;48.450;-4.466;2022-08-23T14:40:55;2.00;1.00;1.00
73828;PMS7003;62176;48.450;-4.466;2022-08-23T14:43:23;0.75;0.75;0.75
73828;PMS7003;62176;48.450;-4.466;2022-08-23T14:45:49;1.00;1.00;1.00
73828;PMS7003;62176;48.450;-4.466;2022-08-23T14:48:16;0.00;0.00;0.00
73828;PMS7003;62176;48.450;-4.466;2022-08-23T14:50:41;0.75;0.75;0.50
73828;PMS7003;62176;48.450;-4.466;2022-08-23T14:53:07;1.00;1.00;0.75
73828;PMS7003;62176;48.450;-4.466;2022-08-23T14:55:33;1.00;1.00;1.00
73828;PMS7003;62176;48.450;-4.466;2022-08-23T14:57:59;1.00;1.00;0.50
73828;PMS7003;62176;48.450;-4.466;2022-08-23T15:00:25;2.00;2.00;1.00
73828;PMS7003;62176;48.450;-4.466;2022-08-23T15:02:50;2.00;1.75;1.00
73828;PMS7003;62176;48.450;-4.466;2022-08-23T15:05:16;0.75;0.75;0.75
73828;PMS7003;62176;48.450;-4.466;2022-08-23T15:07:42;0.50;0.50;0.00
73828;PMS7003;62176;48.450;-4.466;2022-08-23T15:10:08;1.50;1.50;1.00
73828;PMS7003;62176;48.450;-4.466;2022-08-23T15:12:34;0.50;0.50;0.50
73828;PMS7003;62176;48.450;-4.466;2022-08-23T15:15:00;1.00;0.50;0.25
73828;PMS7003;62176;48.450;-4.466;2022-08-23T15:17:27;1.00;1.00;1.00
73828;PMS7003;62176;48.450;-4.466;2022-08-23T15:19:53;1.00;1.00;1.00
73828;PMS7003;62176;48.450;-4.466;2022-08-23T15:22:18;1.00;1.00;0.75
73828;PMS7003;62176;48.450;-4.466;2022-08-23T15:24:43;0.00;0.00;0.00
73828;PMS7003;62176;48.450;-4.466;2022-08-23T15:27:09;0.50;0.00;0.00
73828;PMS7003;62176;48.450;-4.466;2022-08-23T15:29:34;1.75;1.00;0.75
73828;PMS7003;62176;48.450;-4.466;2022-08-23T15:32:00;0.00;0.00;0.00
73828;PMS7003;62176;48.450;-4.466;2022-08-23T15:34:25;1.00;1.00;1.00
73828;PMS7003;62176;48.450;-4.466;2022-08-23T15:36:51;1.00;1.00;1.00
73828;PMS7003;62176;48.450;-4.466;2022-08-23T15:39:16;1.00;1.00;0.75
73828;PMS7003;62176;48.450;-4.466;2022-08-23T15:41:42;2.00;1.00;1.00
73828;PMS7003;62176;48.450;-4.466;2022-08-23T15:44:07;4.00;1.00;1.00
73828;PMS7003;62176;48.450;-4.466;2022-08-23T15:46:33;1.00;1.00;1.00
73828;PMS7003;62176;48.450;-4.466;2022-08-23T15:48:59;2.00;0.75;0.25
73828;PMS7003;62176;48.450;-4.466;2022-08-23T15:51:29;1.00;1.00;0.25
73828;PMS7003;62176;48.450;-4.466;2022-08-23T15:53:55;2.00;1.50;1.00
73828;PMS7003;62176;48.450;-4.466;2022-08-23T15:56:24;1.75;1.50;1.00
73828;PMS7003;62176;48.450;-4.466;2022-08-23T15:58:54;1.00;1.00;0.75
73828;PMS7003;62176;48.450;-4.466;2022-08-23T16:01:20;0.75;0.75;0.50
73828;PMS7003;62176;48.450;-4.466;2022-08-23T16:03:47;5.00;3.00;1.00
73828;PMS7003;62176;48.450;-4.466;2022-08-23T16:06:13;1.00;1.00;0.00
73828;PMS7003;62176;48.450;-4.466;2022-08-23T16:08:40;1.25;1.00;1.00
73828;PMS7003;62176;48.450;-4.466;2022-08-23T16:11:08;1.00;1.00;0.50
73828;PMS7003;62176;48.450;-4.466;2022-08-23T16:13:38;1.25;1.00;1.00
73828;PMS7003;62176;48.450;-4.466;2022-08-23T16:16:28;2.50;1.00;1.00
73828;PMS7003;62176;48.450;-4.466;2022-08-23T16:18:56;2.00;1.00;1.00
73828;PMS7003;62176;48.450;-4.466;2022-08-23T16:21:24;1.00;1.00;1.00